Terminal Aerodrome Forecast
Issued by NWS

Current Version | Previous Version | Text Only | Print | Product List | Glossary Off
Versions: 1 2 3 4 5 6 7 8 9 10 11 12 13 14 15 16 17 18 19 20 21 22 23 24 25 26 27 28

500
FTUS41 KRNK 091135
TAFLWB
TAF
KLWB 091135Z 0912/1012 29006KT 4SM -SHSN BR SCT016 OVC022
      TEMPO 0912/0916 2SM -SHSN OVC012
     FM091800 28007KT P6SM -SHSN OVC025=

USA.gov is the U.S. government's official web portal to all federal, state and local government web resources and services.